<?xml version="1.0" encoding="UTF-8" standalone="no" ?>
<gpx xmlns="http://www.topografix.com/GPX/1/1" xmlns:xsi="http://www.w3.org/2001/XMLSchema-instance" xsi:schemaLocation="http://www.topografix.com/GPX/1/1 http://www.topografix.com/GPX/1/1/gpx.xsd" version="1.1" creator="VisuGPX - https://www.visugpx.com">
  <metadata>
    <name>Norvège</name>
  </metadata>
  <trk>
    <name><![CDATA[Tour d'Europe: étape 041]]></name>
    <trkseg>
      <trkpt lat="63.43365" lon="10.40012">
        <ele>56.97887</ele>
        <time>2020-08-08T06:59:14.228Z</time>
      </trkpt>
      <trkpt lat="63.4332" lon="10.39552">
        <ele>81.081337</ele>
        <time>2020-08-08T07:00:10.208Z</time>
      </trkpt>
      <trkpt lat="63.43275" lon="10.3907">
        <ele>80.874053</ele>
        <time>2020-08-08T07:01:05.210Z</time>
      </trkpt>
      <trkpt lat="63.43176" lon="10.38662">
        <ele>72.590745</ele>
        <time>2020-08-08T07:01:46.268Z</time>
      </trkpt>
      <trkpt lat="63.43129" lon="10.38167">
        <ele>64.621889</ele>
        <time>2020-08-08T07:02:28.253Z</time>
      </trkpt>
      <trkpt lat="63.43097" lon="10.37716">
        <ele>61.199934</ele>
        <time>2020-08-08T07:03:14.206Z</time>
      </trkpt>
      <trkpt lat="63.42978" lon="10.37345">
        <ele>66.587184</ele>
        <time>2020-08-08T07:04:42.241Z</time>
      </trkpt>
      <trkpt lat="63.42868" lon="10.36937">
        <ele>69.187962</ele>
        <time>2020-08-08T07:05:42.204Z</time>
      </trkpt>
      <trkpt lat="63.42824" lon="10.36664">
        <ele>71.582474</ele>
        <time>2020-08-08T07:07:06.208Z</time>
      </trkpt>
      <trkpt lat="63.42947" lon="10.36454">
        <ele>64.173785</ele>
        <time>2020-08-08T07:07:51.211Z</time>
      </trkpt>
      <trkpt lat="63.42985" lon="10.36005">
        <ele>77.776731</ele>
        <time>2020-08-08T07:09:04.224Z</time>
      </trkpt>
      <trkpt lat="63.43093" lon="10.35612">
        <ele>73.933931</ele>
        <time>2020-08-08T07:10:01.248Z</time>
      </trkpt>
      <trkpt lat="63.43222" lon="10.35193">
        <ele>55.784025</ele>
        <time>2020-08-08T07:11:02.226Z</time>
      </trkpt>
      <trkpt lat="63.43423" lon="10.35042">
        <ele>58.003496</ele>
        <time>2020-08-08T07:11:51.246Z</time>
      </trkpt>
      <trkpt lat="63.4365" lon="10.34974">
        <ele>58.180637</ele>
        <time>2020-08-08T07:12:46.233Z</time>
      </trkpt>
      <trkpt lat="63.43845" lon="10.34838">
        <ele>62.89252</ele>
        <time>2020-08-08T07:13:53.233Z</time>
      </trkpt>
      <trkpt lat="63.44043" lon="10.34731">
        <ele>66.547712</ele>
        <time>2020-08-08T07:15:01.239Z</time>
      </trkpt>
      <trkpt lat="63.44246" lon="10.34677">
        <ele>73.521663</ele>
        <time>2020-08-08T07:16:21.213Z</time>
      </trkpt>
      <trkpt lat="63.44362" lon="10.34297">
        <ele>81.589229</ele>
        <time>2020-08-08T07:17:41.217Z</time>
      </trkpt>
      <trkpt lat="63.44453" lon="10.33891">
        <ele>95.120937</ele>
        <time>2020-08-08T07:19:02.214Z</time>
      </trkpt>
      <trkpt lat="63.44616" lon="10.33574">
        <ele>107.022678</ele>
        <time>2020-08-08T07:20:29.227Z</time>
      </trkpt>
      <trkpt lat="63.44605" lon="10.33054">
        <ele>93.384751</ele>
        <time>2020-08-08T07:21:18.234Z</time>
      </trkpt>
      <trkpt lat="63.44718" lon="10.32644">
        <ele>76.896455</ele>
        <time>2020-08-08T07:21:39.223Z</time>
      </trkpt>
      <trkpt lat="63.44872" lon="10.32323">
        <ele>67.052909</ele>
        <time>2020-08-08T07:21:59.246Z</time>
      </trkpt>
      <trkpt lat="63.44919" lon="10.31881">
        <ele>64.81136</ele>
        <time>2020-08-08T07:23:03.218Z</time>
      </trkpt>
      <trkpt lat="63.45056" lon="10.31491">
        <ele>73.471583</ele>
        <time>2020-08-08T07:23:50.237Z</time>
      </trkpt>
      <trkpt lat="63.45178" lon="10.30945">
        <ele>63.532271</ele>
        <time>2020-08-08T07:24:30.208Z</time>
      </trkpt>
      <trkpt lat="63.45317" lon="10.30604">
        <ele>58.906755</ele>
        <time>2020-08-08T07:25:15.215Z</time>
      </trkpt>
      <trkpt lat="63.45422" lon="10.30146">
        <ele>60.092926</ele>
        <time>2020-08-08T07:25:57.557Z</time>
      </trkpt>
      <trkpt lat="63.45354" lon="10.29713">
        <ele>63.284608</ele>
        <time>2020-08-08T07:26:37.220Z</time>
      </trkpt>
      <trkpt lat="63.45303" lon="10.29251">
        <ele>66.814486</ele>
        <time>2020-08-08T07:27:19.225Z</time>
      </trkpt>
      <trkpt lat="63.4523" lon="10.28807">
        <ele>68.54677</ele>
        <time>2020-08-08T07:27:59.240Z</time>
      </trkpt>
      <trkpt lat="63.45137" lon="10.28358">
        <ele>65.755149</ele>
        <time>2020-08-08T07:28:39.218Z</time>
      </trkpt>
      <trkpt lat="63.45157" lon="10.2766">
        <ele>52.022959</ele>
        <time>2020-08-08T07:29:21.224Z</time>
      </trkpt>
      <trkpt lat="63.4521" lon="10.27067">
        <ele>41.750199</ele>
        <time>2020-08-08T07:30:01.216Z</time>
      </trkpt>
      <trkpt lat="63.45304" lon="10.2663">
        <ele>45.375762</ele>
        <time>2020-08-08T07:30:41.217Z</time>
      </trkpt>
      <trkpt lat="63.45295" lon="10.26127">
        <ele>48.470844</ele>
        <time>2020-08-08T07:31:23.244Z</time>
      </trkpt>
      <trkpt lat="63.45292" lon="10.25641">
        <ele>42.838251</ele>
        <time>2020-08-08T07:32:03.260Z</time>
      </trkpt>
      <trkpt lat="63.45248" lon="10.25149">
        <ele>43.893679</ele>
        <time>2020-08-08T07:32:45.228Z</time>
      </trkpt>
      <trkpt lat="63.45292" lon="10.24703">
        <ele>47.471368</ele>
        <time>2020-08-08T07:33:29.244Z</time>
      </trkpt>
      <trkpt lat="63.45198" lon="10.24345">
        <ele>52.450533</ele>
        <time>2020-08-08T07:34:14.218Z</time>
      </trkpt>
      <trkpt lat="63.45198" lon="10.23899">
        <ele>53.632769</ele>
        <time>2020-08-08T07:35:00.205Z</time>
      </trkpt>
      <trkpt lat="63.45244" lon="10.23455">
        <ele>51.911651</ele>
        <time>2020-08-08T07:35:46.255Z</time>
      </trkpt>
      <trkpt lat="63.45349" lon="10.23025">
        <ele>55.193445</ele>
        <time>2020-08-08T07:36:47.241Z</time>
      </trkpt>
      <trkpt lat="63.45192" lon="10.2265">
        <ele>64.391115</ele>
        <time>2020-08-08T07:37:46.235Z</time>
      </trkpt>
      <trkpt lat="63.45101" lon="10.22189">
        <ele>67.738531</ele>
        <time>2020-08-08T07:38:39.200Z</time>
      </trkpt>
      <trkpt lat="63.44989" lon="10.21715">
        <ele>65.73712</ele>
        <time>2020-08-08T07:39:42.212Z</time>
      </trkpt>
      <trkpt lat="63.44928" lon="10.21239">
        <ele>69.454332</ele>
        <time>2020-08-08T07:40:42.227Z</time>
      </trkpt>
      <trkpt lat="63.44864" lon="10.20786">
        <ele>76.504926</ele>
        <time>2020-08-08T07:41:35.274Z</time>
      </trkpt>
      <trkpt lat="63.44679" lon="10.20352">
        <ele>79.351402</ele>
        <time>2020-08-08T07:42:38.219Z</time>
      </trkpt>
      <trkpt lat="63.44585" lon="10.19869">
        <ele>73.819048</ele>
        <time>2020-08-08T07:43:38.217Z</time>
      </trkpt>
      <trkpt lat="63.44528" lon="10.1941">
        <ele>71.476039</ele>
        <time>2020-08-08T07:44:19.210Z</time>
      </trkpt>
      <trkpt lat="63.44763" lon="10.19271">
        <ele>63.348498</ele>
        <time>2020-08-08T07:45:01.207Z</time>
      </trkpt>
      <trkpt lat="63.44957" lon="10.19576">
        <ele>49.325265</ele>
        <time>2020-08-08T07:45:32.240Z</time>
      </trkpt>
      <trkpt lat="63.45115" lon="10.20099">
        <ele>45.461828</ele>
        <time>2020-08-08T07:54:49.222Z</time>
      </trkpt>
      <trkpt lat="63.50854" lon="10.14">
        <ele>57.024782</ele>
        <time>2020-08-08T08:20:49.456Z</time>
      </trkpt>
      <trkpt lat="63.50927" lon="10.13618">
        <ele>53.594474</ele>
        <time>2020-08-08T08:24:58.490Z</time>
      </trkpt>
      <trkpt lat="63.50795" lon="10.13263">
        <ele>60.565012</ele>
        <time>2020-08-08T08:26:26.484Z</time>
      </trkpt>
      <trkpt lat="63.50584" lon="10.13077">
        <ele>55.743825</ele>
        <time>2020-08-08T08:27:08.440Z</time>
      </trkpt>
      <trkpt lat="63.50372" lon="10.12882">
        <ele>46.779347</ele>
        <time>2020-08-08T08:27:33.435Z</time>
      </trkpt>
      <trkpt lat="63.50214" lon="10.12522">
        <ele>44.16122</ele>
        <time>2020-08-08T08:28:15.465Z</time>
      </trkpt>
      <trkpt lat="63.50062" lon="10.12143">
        <ele>44.166854</ele>
        <time>2020-08-08T08:28:55.447Z</time>
      </trkpt>
      <trkpt lat="63.49963" lon="10.1169">
        <ele>44.279042</ele>
        <time>2020-08-08T08:29:37.433Z</time>
      </trkpt>
      <trkpt lat="63.49858" lon="10.11244">
        <ele>44.080517</ele>
        <time>2020-08-08T08:30:17.449Z</time>
      </trkpt>
      <trkpt lat="63.4975" lon="10.10807">
        <ele>45.60991</ele>
        <time>2020-08-08T08:30:57.457Z</time>
      </trkpt>
      <trkpt lat="63.49692" lon="10.10333">
        <ele>57.253024</ele>
        <time>2020-08-08T08:32:15.488Z</time>
      </trkpt>
      <trkpt lat="63.49673" lon="10.099">
        <ele>75.545812</ele>
        <time>2020-08-08T08:34:06.494Z</time>
      </trkpt>
      <trkpt lat="63.49737" lon="10.09467">
        <ele>90.173848</ele>
        <time>2020-08-08T08:36:27.501Z</time>
      </trkpt>
      <trkpt lat="63.49715" lon="10.09082">
        <ele>98.564119</ele>
        <time>2020-08-08T08:38:41.432Z</time>
      </trkpt>
      <trkpt lat="63.4966" lon="10.08608">
        <ele>90.750274</ele>
        <time>2020-08-08T08:39:32.442Z</time>
      </trkpt>
      <trkpt lat="63.4964" lon="10.08102">
        <ele>80.929488</ele>
        <time>2020-08-08T08:40:15.464Z</time>
      </trkpt>
      <trkpt lat="63.49586" lon="10.07636">
        <ele>77.164123</ele>
        <time>2020-08-08T08:41:04.455Z</time>
      </trkpt>
      <trkpt lat="63.49465" lon="10.07243">
        <ele>78.308215</ele>
        <time>2020-08-08T08:42:08.437Z</time>
      </trkpt>
      <trkpt lat="63.49441" lon="10.0679">
        <ele>93.769324</ele>
        <time>2020-08-08T08:44:39.473Z</time>
      </trkpt>
      <trkpt lat="63.49432" lon="10.06354">
        <ele>109.67146</ele>
        <time>2020-08-08T08:46:33.469Z</time>
      </trkpt>
      <trkpt lat="63.49382" lon="10.059">
        <ele>118.312022</ele>
        <time>2020-08-08T08:48:14.437Z</time>
      </trkpt>
      <trkpt lat="63.49255" lon="10.05508">
        <ele>114.482609</ele>
        <time>2020-08-08T08:49:15.444Z</time>
      </trkpt>
      <trkpt lat="63.49158" lon="10.05063">
        <ele>95.375777</ele>
        <time>2020-08-08T08:50:04.441Z</time>
      </trkpt>
      <trkpt lat="63.49165" lon="10.04572">
        <ele>69.006161</ele>
        <time>2020-08-08T08:50:57.443Z</time>
      </trkpt>
      <trkpt lat="63.49228" lon="10.04047">
        <ele>53.04697</ele>
        <time>2020-08-08T08:51:43.499Z</time>
      </trkpt>
      <trkpt lat="63.49294" lon="10.03606">
        <ele>48.530335</ele>
        <time>2020-08-08T08:52:28.490Z</time>
      </trkpt>
      <trkpt lat="63.49445" lon="10.032">
        <ele>50.271687</ele>
        <time>2020-08-08T08:53:41.434Z</time>
      </trkpt>
      <trkpt lat="63.49488" lon="10.02738">
        <ele>53.518452</ele>
        <time>2020-08-08T08:54:32.489Z</time>
      </trkpt>
      <trkpt lat="63.49471" lon="10.02209">
        <ele>48.421679</ele>
        <time>2020-08-08T08:55:14.435Z</time>
      </trkpt>
      <trkpt lat="63.49528" lon="10.01719">
        <ele>47.07467</ele>
        <time>2020-08-08T08:55:59.481Z</time>
      </trkpt>
      <trkpt lat="63.49614" lon="10.01379">
        <ele>51.337653</ele>
        <time>2020-08-08T08:57:08.432Z</time>
      </trkpt>
      <trkpt lat="63.49734" lon="10.01053">
        <ele>52.094522</ele>
        <time>2020-08-08T08:58:12.450Z</time>
      </trkpt>
      <trkpt lat="63.49762" lon="10.00582">
        <ele>51.406021</ele>
        <time>2020-08-08T08:59:03.471Z</time>
      </trkpt>
      <trkpt lat="63.49779" lon="10.00102">
        <ele>54.235614</ele>
        <time>2020-08-08T08:59:52.479Z</time>
      </trkpt>
      <trkpt lat="63.49809" lon="9.99651">
        <ele>58.409189</ele>
        <time>2020-08-08T09:00:56.469Z</time>
      </trkpt>
      <trkpt lat="63.49866" lon="9.99175">
        <ele>56.291247</ele>
        <time>2020-08-08T09:01:53.454Z</time>
      </trkpt>
      <trkpt lat="63.49948" lon="9.98686">
        <ele>52.994794</ele>
        <time>2020-08-08T09:02:35.443Z</time>
      </trkpt>
      <trkpt lat="63.50015" lon="9.98206">
        <ele>56.804038</ele>
        <time>2020-08-08T09:03:30.455Z</time>
      </trkpt>
      <trkpt lat="63.50031" lon="9.97746">
        <ele>59.68334</ele>
        <time>2020-08-08T09:04:30.451Z</time>
      </trkpt>
      <trkpt lat="63.50039" lon="9.97291">
        <ele>60.883997</ele>
        <time>2020-08-08T09:05:33.436Z</time>
      </trkpt>
      <trkpt lat="63.50047" lon="9.96841">
        <ele>63.909444</ele>
        <time>2020-08-08T09:06:33.458Z</time>
      </trkpt>
      <trkpt lat="63.50053" lon="9.96379">
        <ele>69.994326</ele>
        <time>2020-08-08T09:07:40.474Z</time>
      </trkpt>
      <trkpt lat="63.50046" lon="9.95914">
        <ele>80.49478</ele>
        <time>2020-08-08T09:09:34.441Z</time>
      </trkpt>
      <trkpt lat="63.50048" lon="9.95471">
        <ele>95.808251</ele>
        <time>2020-08-08T09:11:30.472Z</time>
      </trkpt>
      <trkpt lat="63.50128" lon="9.95047">
        <ele>111.384669</ele>
        <time>2020-08-08T09:13:35.447Z</time>
      </trkpt>
      <trkpt lat="63.50232" lon="9.94682">
        <ele>118.308467</ele>
        <time>2020-08-08T09:15:15.460Z</time>
      </trkpt>
      <trkpt lat="63.50334" lon="9.94323">
        <ele>122.523691</ele>
        <time>2020-08-08T09:16:35.450Z</time>
      </trkpt>
      <trkpt lat="63.50455" lon="9.93922">
        <ele>130.293917</ele>
        <time>2020-08-08T09:18:00.459Z</time>
      </trkpt>
      <trkpt lat="63.50599" lon="9.93634">
        <ele>135.12003</ele>
        <time>2020-08-08T09:19:21.473Z</time>
      </trkpt>
      <trkpt lat="63.5079" lon="9.9352">
        <ele>141.166295</ele>
        <time>2020-08-08T09:20:45.454Z</time>
      </trkpt>
      <trkpt lat="63.51003" lon="9.93441">
        <ele>150.376934</ele>
        <time>2020-08-08T09:22:29.470Z</time>
      </trkpt>
      <trkpt lat="63.51194" lon="9.933">
        <ele>159.662676</ele>
        <time>2020-08-08T09:24:01.436Z</time>
      </trkpt>
      <trkpt lat="63.5135" lon="9.92989">
        <ele>162.771734</ele>
        <time>2020-08-08T09:25:26.446Z</time>
      </trkpt>
      <trkpt lat="63.51542" lon="9.92804">
        <ele>160.310895</ele>
        <time>2020-08-08T09:26:22.472Z</time>
      </trkpt>
      <trkpt lat="63.51754" lon="9.92716">
        <ele>161.33011</ele>
        <time>2020-08-08T09:27:09.441Z</time>
      </trkpt>
      <trkpt lat="63.51961" lon="9.92724">
        <ele>171.408235</ele>
        <time>2020-08-08T09:28:30.477Z</time>
      </trkpt>
      <trkpt lat="63.52143" lon="9.92961">
        <ele>175.120318</ele>
        <time>2020-08-08T09:29:47.432Z</time>
      </trkpt>
      <trkpt lat="63.52352" lon="9.93169">
        <ele>170.968692</ele>
        <time>2020-08-08T09:30:33.491Z</time>
      </trkpt>
      <trkpt lat="63.5261" lon="9.93333">
        <ele>167.387976</ele>
        <time>2020-08-08T09:31:13.444Z</time>
      </trkpt>
      <trkpt lat="63.5281" lon="9.93061">
        <ele>162.320768</ele>
        <time>2020-08-08T09:31:56.453Z</time>
      </trkpt>
      <trkpt lat="63.53001" lon="9.92797">
        <ele>163.442524</ele>
        <time>2020-08-08T09:32:38.477Z</time>
      </trkpt>
      <trkpt lat="63.53187" lon="9.92619">
        <ele>170.268929</ele>
        <time>2020-08-08T09:33:54.483Z</time>
      </trkpt>
      <trkpt lat="63.53406" lon="9.92634">
        <ele>169.143414</ele>
        <time>2020-08-08T09:35:01.450Z</time>
      </trkpt>
      <trkpt lat="63.53671" lon="9.92634">
        <ele>156.737641</ele>
        <time>2020-08-08T09:35:32.487Z</time>
      </trkpt>
      <trkpt lat="63.53912" lon="9.92593">
        <ele>140.009316</ele>
        <time>2020-08-08T09:35:52.468Z</time>
      </trkpt>
      <trkpt lat="63.54218" lon="9.92625">
        <ele>106.076816</ele>
        <time>2020-08-08T09:36:13.499Z</time>
      </trkpt>
      <trkpt lat="63.54545" lon="9.92619">
        <ele>65.739366</ele>
        <time>2020-08-08T09:36:33.461Z</time>
      </trkpt>
      <trkpt lat="63.54819" lon="9.9255">
        <ele>48.367213</ele>
        <time>2020-08-08T09:36:53.477Z</time>
      </trkpt>
      <trkpt lat="63.5508" lon="9.92498">
        <ele>48.259122</ele>
        <time>2020-08-08T09:37:28.447Z</time>
      </trkpt>
      <trkpt lat="63.55294" lon="9.92456">
        <ele>50.777974</ele>
        <time>2020-08-08T09:38:16.451Z</time>
      </trkpt>
      <trkpt lat="63.55491" lon="9.92407">
        <ele>50.912126</ele>
        <time>2020-08-08T09:38:58.485Z</time>
      </trkpt>
      <trkpt lat="63.55727" lon="9.92332">
        <ele>53.67842</ele>
        <time>2020-08-08T09:39:53.489Z</time>
      </trkpt>
      <trkpt lat="63.55929" lon="9.92266">
        <ele>59.20648</ele>
        <time>2020-08-08T09:41:01.504Z</time>
      </trkpt>
      <trkpt lat="63.5615" lon="9.92183">
        <ele>64.460122</ele>
        <time>2020-08-08T09:42:07.466Z</time>
      </trkpt>
      <trkpt lat="63.56359" lon="9.92145">
        <ele>71.545292</ele>
        <time>2020-08-08T09:43:22.459Z</time>
      </trkpt>
      <trkpt lat="63.56487" lon="9.92538">
        <ele>75.141663</ele>
        <time>2020-08-08T09:48:18.469Z</time>
      </trkpt>
      <trkpt lat="63.56674" lon="9.9284">
        <ele>66.839022</ele>
        <time>2020-08-08T09:48:49.495Z</time>
      </trkpt>
      <trkpt lat="63.56869" lon="9.93186">
        <ele>55.076086</ele>
        <time>2020-08-08T09:49:19.481Z</time>
      </trkpt>
      <trkpt lat="63.57134" lon="9.93286">
        <ele>49.546339</ele>
        <time>2020-08-08T09:49:59.462Z</time>
      </trkpt>
      <trkpt lat="63.57369" lon="9.93379">
        <ele>46.909868</ele>
        <time>2020-08-08T09:50:47.481Z</time>
      </trkpt>
      <trkpt lat="63.5761" lon="9.93476">
        <ele>43.246872</ele>
        <time>2020-08-08T09:51:27.457Z</time>
      </trkpt>
      <trkpt lat="63.57834" lon="9.9356">
        <ele>47.476482</ele>
        <time>2020-08-08T09:52:17.449Z</time>
      </trkpt>
      <trkpt lat="63.58033" lon="9.93604">
        <ele>50.11382</ele>
        <time>2020-08-08T09:53:33.466Z</time>
      </trkpt>
      <trkpt lat="63.58159" lon="9.93248">
        <ele>49.972292</ele>
        <time>2020-08-08T09:54:14.479Z</time>
      </trkpt>
      <trkpt lat="63.58055" lon="9.93562">
        <ele>50.888377</ele>
        <time>2020-08-08T09:55:18.471Z</time>
      </trkpt>
      <trkpt lat="63.58093" lon="9.9401">
        <ele>53.506479</ele>
        <time>2020-08-08T09:56:17.492Z</time>
      </trkpt>
      <trkpt lat="63.58181" lon="9.94522">
        <ele>57.441637</ele>
        <time>2020-08-08T09:57:14.459Z</time>
      </trkpt>
      <trkpt lat="63.58262" lon="9.95051">
        <ele>59.983463</ele>
        <time>2020-08-08T09:58:17.468Z</time>
      </trkpt>
      <trkpt lat="63.58348" lon="9.95538">
        <ele>65.097446</ele>
        <time>2020-08-08T09:59:16.450Z</time>
      </trkpt>
      <trkpt lat="63.58446" lon="9.95993">
        <ele>63.047603</ele>
        <time>2020-08-08T10:00:17.500Z</time>
      </trkpt>
      <trkpt lat="63.58539" lon="9.96438">
        <ele>69.100998</ele>
        <time>2020-08-08T10:01:22.510Z</time>
      </trkpt>
      <trkpt lat="63.58635" lon="9.96842">
        <ele>73.654747</ele>
        <time>2020-08-08T10:02:33.483Z</time>
      </trkpt>
      <trkpt lat="63.58727" lon="9.97274">
        <ele>76.78377</ele>
        <time>2020-08-08T10:03:45.462Z</time>
      </trkpt>
      <trkpt lat="63.5882" lon="9.97703">
        <ele>80.110804</ele>
        <time>2020-08-08T10:05:05.482Z</time>
      </trkpt>
      <trkpt lat="63.58917" lon="9.98113">
        <ele>83.868405</ele>
        <time>2020-08-08T10:06:07.476Z</time>
      </trkpt>
      <trkpt lat="63.59135" lon="9.98441">
        <ele>72.271811</ele>
        <time>2020-08-08T10:06:56.450Z</time>
      </trkpt>
      <trkpt lat="63.59334" lon="9.98666">
        <ele>60.258698</ele>
        <time>2020-08-08T10:07:20.526Z</time>
      </trkpt>
      <trkpt lat="63.59523" lon="9.98971">
        <ele>50.552695</ele>
        <time>2020-08-08T10:07:44.469Z</time>
      </trkpt>
      <trkpt lat="63.59705" lon="9.99454">
        <ele>46.154038</ele>
        <time>2020-08-08T10:08:24.496Z</time>
      </trkpt>
      <trkpt lat="63.59838" lon="9.99795">
        <ele>56.68929</ele>
        <time>2020-08-08T10:09:24.453Z</time>
      </trkpt>
      <trkpt lat="63.60008" lon="10.00057">
        <ele>56.782869</ele>
        <time>2020-08-08T10:10:31.464Z</time>
      </trkpt>
      <trkpt lat="63.60163" lon="10.00335">
        <ele>65.618591</ele>
        <time>2020-08-08T10:12:03.458Z</time>
      </trkpt>
      <trkpt lat="63.60313" lon="10.00727">
        <ele>68.491766</ele>
        <time>2020-08-08T10:13:26.453Z</time>
      </trkpt>
      <trkpt lat="63.60456" lon="10.01098">
        <ele>75.38654</ele>
        <time>2020-08-08T10:14:43.484Z</time>
      </trkpt>
      <trkpt lat="63.6059" lon="10.01435">
        <ele>83.12149</ele>
        <time>2020-08-08T10:16:26.452Z</time>
      </trkpt>
      <trkpt lat="63.60758" lon="10.01761">
        <ele>86.697775</ele>
        <time>2020-08-08T10:17:35.471Z</time>
      </trkpt>
      <trkpt lat="63.60933" lon="10.02082">
        <ele>86.60334</ele>
        <time>2020-08-08T10:18:33.457Z</time>
      </trkpt>
      <trkpt lat="63.61098" lon="10.02386">
        <ele>91.530083</ele>
        <time>2020-08-08T10:19:44.461Z</time>
      </trkpt>
      <trkpt lat="63.61282" lon="10.02723">
        <ele>93.617973</ele>
        <time>2020-08-08T10:20:47.457Z</time>
      </trkpt>
      <trkpt lat="63.61468" lon="10.03071">
        <ele>93.725402</ele>
        <time>2020-08-08T10:21:43.449Z</time>
      </trkpt>
      <trkpt lat="63.61656" lon="10.03397">
        <ele>82.080706</ele>
        <time>2020-08-08T10:22:16.458Z</time>
      </trkpt>
      <trkpt lat="63.61836" lon="10.03699">
        <ele>66.836553</ele>
        <time>2020-08-08T10:22:36.483Z</time>
      </trkpt>
      <trkpt lat="63.62033" lon="10.04029">
        <ele>60.298957</ele>
        <time>2020-08-08T10:23:06.450Z</time>
      </trkpt>
      <trkpt lat="63.62231" lon="10.04182">
        <ele>64.016968</ele>
        <time>2020-08-08T10:23:52.452Z</time>
      </trkpt>
      <trkpt lat="63.62405" lon="10.04486">
        <ele>64.108508</ele>
        <time>2020-08-08T10:24:52.506Z</time>
      </trkpt>
      <trkpt lat="63.62567" lon="10.04825">
        <ele>61.870723</ele>
        <time>2020-08-08T10:25:39.500Z</time>
      </trkpt>
      <trkpt lat="63.62743" lon="10.05218">
        <ele>60.718242</ele>
        <time>2020-08-08T10:26:35.453Z</time>
      </trkpt>
      <trkpt lat="63.62883" lon="10.05584">
        <ele>63.036291</ele>
        <time>2020-08-08T10:27:33.481Z</time>
      </trkpt>
      <trkpt lat="63.63042" lon="10.05977">
        <ele>60.333178</ele>
        <time>2020-08-08T10:28:23.468Z</time>
      </trkpt>
      <trkpt lat="63.63146" lon="10.06409">
        <ele>59.522478</ele>
        <time>2020-08-08T10:29:03.464Z</time>
      </trkpt>
      <trkpt lat="63.63262" lon="10.06811">
        <ele>61.874708</ele>
        <time>2020-08-08T10:29:57.463Z</time>
      </trkpt>
      <trkpt lat="63.63376" lon="10.07228">
        <ele>63.530905</ele>
        <time>2020-08-08T10:30:39.498Z</time>
      </trkpt>
      <trkpt lat="63.63457" lon="10.07617">
        <ele>64.879974</ele>
        <time>2020-08-08T10:31:23.449Z</time>
      </trkpt>
      <trkpt lat="63.63563" lon="10.08041">
        <ele>64.029705</ele>
        <time>2020-08-08T10:32:07.486Z</time>
      </trkpt>
      <trkpt lat="63.63681" lon="10.08427">
        <ele>61.015175</ele>
        <time>2020-08-08T10:32:52.461Z</time>
      </trkpt>
      <trkpt lat="63.63836" lon="10.08781">
        <ele>62.726456</ele>
        <time>2020-08-08T10:33:42.469Z</time>
      </trkpt>
      <trkpt lat="63.6399" lon="10.09139">
        <ele>67.263442</ele>
        <time>2020-08-08T10:34:47.452Z</time>
      </trkpt>
      <trkpt lat="63.64133" lon="10.09535">
        <ele>69.206296</ele>
        <time>2020-08-08T10:35:39.469Z</time>
      </trkpt>
      <trkpt lat="63.64251" lon="10.09884">
        <ele>68.985125</ele>
        <time>2020-08-08T10:36:20.462Z</time>
      </trkpt>
      <trkpt lat="63.64357" lon="10.10322">
        <ele>69.61411</ele>
        <time>2020-08-08T10:37:33.455Z</time>
      </trkpt>
      <trkpt lat="63.64356" lon="10.10776">
        <ele>74.587614</ele>
        <time>2020-08-08T10:38:44.455Z</time>
      </trkpt>
      <trkpt lat="63.64338" lon="10.11229">
        <ele>80.888438</ele>
        <time>2020-08-08T10:40:21.483Z</time>
      </trkpt>
      <trkpt lat="63.64397" lon="10.11677">
        <ele>94.588328</ele>
        <time>2020-08-08T10:42:04.478Z</time>
      </trkpt>
      <trkpt lat="63.64557" lon="10.11917">
        <ele>111.275457</ele>
        <time>2020-08-08T10:44:12.492Z</time>
      </trkpt>
      <trkpt lat="63.64667" lon="10.12309">
        <ele>118.386634</ele>
        <time>2020-08-08T10:45:44.491Z</time>
      </trkpt>
      <trkpt lat="63.64794" lon="10.12775">
        <ele>105.726471</ele>
        <time>2020-08-08T10:46:24.466Z</time>
      </trkpt>
      <trkpt lat="63.64951" lon="10.1328">
        <ele>93.747354</ele>
        <time>2020-08-08T10:46:57.473Z</time>
      </trkpt>
      <trkpt lat="63.65069" lon="10.13763">
        <ele>86.574195</ele>
        <time>2020-08-08T10:47:29.452Z</time>
      </trkpt>
      <trkpt lat="63.65128" lon="10.14303">
        <ele>83.755384</ele>
        <time>2020-08-08T10:48:09.479Z</time>
      </trkpt>
      <trkpt lat="63.65243" lon="10.14754">
        <ele>81.628081</ele>
        <time>2020-08-08T10:48:50.474Z</time>
      </trkpt>
      <trkpt lat="63.65426" lon="10.15168">
        <ele>76.017094</ele>
        <time>2020-08-08T10:49:32.510Z</time>
      </trkpt>
      <trkpt lat="63.65623" lon="10.15561">
        <ele>69.579001</ele>
        <time>2020-08-08T10:50:12.473Z</time>
      </trkpt>
      <trkpt lat="63.65784" lon="10.1597">
        <ele>70.725017</ele>
        <time>2020-08-08T10:51:07.465Z</time>
      </trkpt>
      <trkpt lat="63.65915" lon="10.16298">
        <ele>70.751801</ele>
        <time>2020-08-08T10:51:48.488Z</time>
      </trkpt>
      <trkpt lat="63.6609" lon="10.16635">
        <ele>71.458973</ele>
        <time>2020-08-08T10:52:42.465Z</time>
      </trkpt>
      <trkpt lat="63.66239" lon="10.17079">
        <ele>75.114292</ele>
        <time>2020-08-08T10:53:44.479Z</time>
      </trkpt>
      <trkpt lat="63.66337" lon="10.17509">
        <ele>78.30272</ele>
        <time>2020-08-08T11:05:50.492Z</time>
      </trkpt>
      <trkpt lat="63.66469" lon="10.17918">
        <ele>81.108642</ele>
        <time>2020-08-08T11:06:56.473Z</time>
      </trkpt>
      <trkpt lat="63.6659" lon="10.18273">
        <ele>80.86819</ele>
        <time>2020-08-08T11:07:43.441Z</time>
      </trkpt>
      <trkpt lat="63.66618" lon="10.18794">
        <ele>75.253858</ele>
        <time>2020-08-08T11:08:36.465Z</time>
      </trkpt>
      <trkpt lat="63.66693" lon="10.19286">
        <ele>77.542154</ele>
        <time>2020-08-08T11:09:35.490Z</time>
      </trkpt>
      <trkpt lat="63.66824" lon="10.19678">
        <ele>82.616996</ele>
        <time>2020-08-08T11:10:36.478Z</time>
      </trkpt>
      <trkpt lat="63.66954" lon="10.20051">
        <ele>84.402581</ele>
        <time>2020-08-08T11:11:44.526Z</time>
      </trkpt>
      <trkpt lat="63.67089" lon="10.20454">
        <ele>83.083575</ele>
        <time>2020-08-08T11:12:26.481Z</time>
      </trkpt>
      <trkpt lat="63.67231" lon="10.20806">
        <ele>86.970715</ele>
        <time>2020-08-08T11:13:27.475Z</time>
      </trkpt>
      <trkpt lat="63.67318" lon="10.21258">
        <ele>88.574534</ele>
        <time>2020-08-08T11:14:21.490Z</time>
      </trkpt>
      <trkpt lat="63.67488" lon="10.21533">
        <ele>99.563966</ele>
        <time>2020-08-08T11:15:40.503Z</time>
      </trkpt>
      <trkpt lat="63.67606" lon="10.21874">
        <ele>117.22147</ele>
        <time>2020-08-08T11:17:31.441Z</time>
      </trkpt>
      <trkpt lat="63.67722" lon="10.22244">
        <ele>129.73366</ele>
        <time>2020-08-08T11:19:39.491Z</time>
      </trkpt>
      <trkpt lat="63.67847" lon="10.2257">
        <ele>144.916561</ele>
        <time>2020-08-08T11:21:57.445Z</time>
      </trkpt>
      <trkpt lat="63.67975" lon="10.22892">
        <ele>159.328832</ele>
        <time>2020-08-08T11:24:30.449Z</time>
      </trkpt>
      <trkpt lat="63.68092" lon="10.23264">
        <ele>169.354365</ele>
        <time>2020-08-08T11:26:33.502Z</time>
      </trkpt>
      <trkpt lat="63.68206" lon="10.23632">
        <ele>177.682801</ele>
        <time>2020-08-08T11:28:15.457Z</time>
      </trkpt>
      <trkpt lat="63.6834" lon="10.24009">
        <ele>187.495858</ele>
        <time>2020-08-08T11:29:43.491Z</time>
      </trkpt>
      <trkpt lat="63.68507" lon="10.24234">
        <ele>202.309649</ele>
        <time>2020-08-08T11:31:29.478Z</time>
      </trkpt>
      <trkpt lat="63.68692" lon="10.2437">
        <ele>216.555711</ele>
        <time>2020-08-08T11:33:27.451Z</time>
      </trkpt>
      <trkpt lat="63.6889" lon="10.24461">
        <ele>229.929538</ele>
        <time>2020-08-08T11:35:58.454Z</time>
      </trkpt>
      <trkpt lat="63.69084" lon="10.24488">
        <ele>240.472126</ele>
        <time>2020-08-08T11:38:10.477Z</time>
      </trkpt>
      <trkpt lat="63.69278" lon="10.24427">
        <ele>256.740297</ele>
        <time>2020-08-08T11:40:18.461Z</time>
      </trkpt>
      <trkpt lat="63.69478" lon="10.24337">
        <ele>269.829096</ele>
        <time>2020-08-08T11:42:44.481Z</time>
      </trkpt>
      <trkpt lat="63.69674" lon="10.2423">
        <ele>274.339114</ele>
        <time>2020-08-08T11:46:48.479Z</time>
      </trkpt>
      <trkpt lat="63.69855" lon="10.2397">
        <ele>273.185501</ele>
        <time>2020-08-08T11:47:45.454Z</time>
      </trkpt>
      <trkpt lat="63.70045" lon="10.23839">
        <ele>274.354184</ele>
        <time>2020-08-08T11:48:28.456Z</time>
      </trkpt>
      <trkpt lat="63.70234" lon="10.23753">
        <ele>274.528879</ele>
        <time>2020-08-08T11:49:08.457Z</time>
      </trkpt>
      <trkpt lat="63.70436" lon="10.23634">
        <ele>272.457742</ele>
        <time>2020-08-08T11:49:53.473Z</time>
      </trkpt>
      <trkpt lat="63.70632" lon="10.23522">
        <ele>273.05811</ele>
        <time>2020-08-08T11:50:33.448Z</time>
      </trkpt>
      <trkpt lat="63.70833" lon="10.23545">
        <ele>273.450327</ele>
        <time>2020-08-08T11:51:13.480Z</time>
      </trkpt>
      <trkpt lat="63.71039" lon="10.2358">
        <ele>275.95012</ele>
        <time>2020-08-08T11:51:55.459Z</time>
      </trkpt>
      <trkpt lat="63.71243" lon="10.23671">
        <ele>273.748211</ele>
        <time>2020-08-08T11:52:36.506Z</time>
      </trkpt>
      <trkpt lat="63.71484" lon="10.23562">
        <ele>273.800032</ele>
        <time>2020-08-08T11:53:18.466Z</time>
      </trkpt>
      <trkpt lat="63.71725" lon="10.23444">
        <ele>267.569888</ele>
        <time>2020-08-08T11:53:58.471Z</time>
      </trkpt>
      <trkpt lat="63.71964" lon="10.2324">
        <ele>263.412654</ele>
        <time>2020-08-08T11:54:38.507Z</time>
      </trkpt>
      <trkpt lat="63.72243" lon="10.23316">
        <ele>255.173867</ele>
        <time>2020-08-08T11:55:18.478Z</time>
      </trkpt>
      <trkpt lat="63.72474" lon="10.23442">
        <ele>241.659263</ele>
        <time>2020-08-08T11:55:43.501Z</time>
      </trkpt>
      <trkpt lat="63.7271" lon="10.23512">
        <ele>228.065971</ele>
        <time>2020-08-08T11:56:03.463Z</time>
      </trkpt>
      <trkpt lat="63.72932" lon="10.23483">
        <ele>217.105103</ele>
        <time>2020-08-08T11:56:27.491Z</time>
      </trkpt>
      <trkpt lat="63.73165" lon="10.23446">
        <ele>199.018046</ele>
        <time>2020-08-08T11:56:47.477Z</time>
      </trkpt>
      <trkpt lat="63.73386" lon="10.23429">
        <ele>188.953083</ele>
        <time>2020-08-08T11:57:08.450Z</time>
      </trkpt>
      <trkpt lat="63.73627" lon="10.23324">
        <ele>183.813871</ele>
        <time>2020-08-08T11:57:46.497Z</time>
      </trkpt>
      <trkpt lat="63.7383" lon="10.2346">
        <ele>191.335462</ele>
        <time>2020-08-08T11:58:34.459Z</time>
      </trkpt>
      <trkpt lat="63.74034" lon="10.23629">
        <ele>191.250309</ele>
        <time>2020-08-08T11:59:16.456Z</time>
      </trkpt>
      <trkpt lat="63.74245" lon="10.23742">
        <ele>191.415449</ele>
        <time>2020-08-08T12:00:01.467Z</time>
      </trkpt>
      <trkpt lat="63.74482" lon="10.23809">
        <ele>192.804912</ele>
        <time>2020-08-08T12:00:53.487Z</time>
      </trkpt>
      <trkpt lat="63.74719" lon="10.23713">
        <ele>188.677636</ele>
        <time>2020-08-08T12:01:33.501Z</time>
      </trkpt>
      <trkpt lat="63.74987" lon="10.23676">
        <ele>181.432919</ele>
        <time>2020-08-08T12:02:13.477Z</time>
      </trkpt>
      <trkpt lat="63.75259" lon="10.23726">
        <ele>171.944495</ele>
        <time>2020-08-08T12:02:53.484Z</time>
      </trkpt>
      <trkpt lat="63.75496" lon="10.23702">
        <ele>162.432199</ele>
        <time>2020-08-08T12:03:22.469Z</time>
      </trkpt>
      <trkpt lat="63.75745" lon="10.23778">
        <ele>150.830844</ele>
        <time>2020-08-08T12:04:02.494Z</time>
      </trkpt>
      <trkpt lat="63.75957" lon="10.23936">
        <ele>158.133289</ele>
        <time>2020-08-08T12:05:00.444Z</time>
      </trkpt>
      <trkpt lat="63.76191" lon="10.23893">
        <ele>161.859859</ele>
        <time>2020-08-08T12:05:52.460Z</time>
      </trkpt>
      <trkpt lat="63.76417" lon="10.23957">
        <ele>165.461188</ele>
        <time>2020-08-08T12:07:07.481Z</time>
      </trkpt>
      <trkpt lat="63.76617" lon="10.23995">
        <ele>176.986773</ele>
        <time>2020-08-08T12:08:37.453Z</time>
      </trkpt>
      <trkpt lat="63.76803" lon="10.23852">
        <ele>188.045373</ele>
        <time>2020-08-08T12:10:40.459Z</time>
      </trkpt>
      <trkpt lat="63.76992" lon="10.23677">
        <ele>203.4101</ele>
        <time>2020-08-08T12:13:02.450Z</time>
      </trkpt>
      <trkpt lat="63.77198" lon="10.23662">
        <ele>205.645927</ele>
        <time>2020-08-08T12:14:46.452Z</time>
      </trkpt>
      <trkpt lat="63.77439" lon="10.2363">
        <ele>191.988324</ele>
        <time>2020-08-08T12:15:16.477Z</time>
      </trkpt>
      <trkpt lat="63.77675" lon="10.23278">
        <ele>177.585558</ele>
        <time>2020-08-08T12:15:39.470Z</time>
      </trkpt>
      <trkpt lat="63.77723" lon="10.22667">
        <ele>166.062941</ele>
        <time>2020-08-08T12:16:12.493Z</time>
      </trkpt>
      <trkpt lat="63.77751" lon="10.22185">
        <ele>167.150564</ele>
        <time>2020-08-08T12:16:54.447Z</time>
      </trkpt>
      <trkpt lat="63.77914" lon="10.21802">
        <ele>165.751193</ele>
        <time>2020-08-08T12:17:34.462Z</time>
      </trkpt>
      <trkpt lat="63.78126" lon="10.21937">
        <ele>164.712064</ele>
        <time>2020-08-08T12:18:14.469Z</time>
      </trkpt>
      <trkpt lat="63.7831" lon="10.22292">
        <ele>162.169046</ele>
        <time>2020-08-08T12:18:57.476Z</time>
      </trkpt>
      <trkpt lat="63.78473" lon="10.22694">
        <ele>162.253252</ele>
        <time>2020-08-08T12:19:37.479Z</time>
      </trkpt>
      <trkpt lat="63.78645" lon="10.23106">
        <ele>163.342262</ele>
        <time>2020-08-08T12:20:18.447Z</time>
      </trkpt>
      <trkpt lat="63.78876" lon="10.23166">
        <ele>171.684304</ele>
        <time>2020-08-08T12:21:25.484Z</time>
      </trkpt>
      <trkpt lat="63.79063" lon="10.23356">
        <ele>173.308473</ele>
        <time>2020-08-08T12:22:37.442Z</time>
      </trkpt>
      <trkpt lat="63.79284" lon="10.23274">
        <ele>164.710347</ele>
        <time>2020-08-08T12:23:29.474Z</time>
      </trkpt>
      <trkpt lat="63.79584" lon="10.23282">
        <ele>159.869957</ele>
        <time>2020-08-08T12:24:09.451Z</time>
      </trkpt>
      <trkpt lat="63.79872" lon="10.23184">
        <ele>152.887843</ele>
        <time>2020-08-08T12:24:49.473Z</time>
      </trkpt>
      <trkpt lat="63.80108" lon="10.23138">
        <ele>146.265948</ele>
        <time>2020-08-08T12:25:12.449Z</time>
      </trkpt>
      <trkpt lat="63.80286" lon="10.22771">
        <ele>138.782729</ele>
        <time>2020-08-08T12:25:51.463Z</time>
      </trkpt>
      <trkpt lat="63.80401" lon="10.22968">
        <ele>138.733568</ele>
        <time>2020-08-08T12:26:39.490Z</time>
      </trkpt>
      <trkpt lat="63.80503" lon="10.23376">
        <ele>140.764383</ele>
        <time>2020-08-08T12:27:21.451Z</time>
      </trkpt>
      <trkpt lat="63.80703" lon="10.23395">
        <ele>149.056234</ele>
        <time>2020-08-08T12:28:14.453Z</time>
      </trkpt>
      <trkpt lat="63.80913" lon="10.23498">
        <ele>162.425496</ele>
        <time>2020-08-08T12:30:11.484Z</time>
      </trkpt>
      <trkpt lat="63.8111" lon="10.23549">
        <ele>171.560709</ele>
        <time>2020-08-08T12:31:50.500Z</time>
      </trkpt>
      <trkpt lat="63.8131" lon="10.23558">
        <ele>175.443897</ele>
        <time>2020-08-08T12:33:23.492Z</time>
      </trkpt>
      <trkpt lat="63.81533" lon="10.23499">
        <ele>167.932608</ele>
        <time>2020-08-08T12:34:05.459Z</time>
      </trkpt>
      <trkpt lat="63.81741" lon="10.23413">
        <ele>173.400488</ele>
        <time>2020-08-08T12:34:47.447Z</time>
      </trkpt>
      <trkpt lat="63.81933" lon="10.23228">
        <ele>171.597972</ele>
        <time>2020-08-08T12:35:28.451Z</time>
      </trkpt>
      <trkpt lat="63.82108" lon="10.23004">
        <ele>171.89458</ele>
        <time>2020-08-08T12:36:11.494Z</time>
      </trkpt>
      <trkpt lat="63.82312" lon="10.23036">
        <ele>169.060549</ele>
        <time>2020-08-08T12:36:51.486Z</time>
      </trkpt>
      <trkpt lat="63.82533" lon="10.23022">
        <ele>168.537778</ele>
        <time>2020-08-08T12:37:33.457Z</time>
      </trkpt>
      <trkpt lat="63.8274" lon="10.22881">
        <ele>172.109414</ele>
        <time>2020-08-08T12:38:19.483Z</time>
      </trkpt>
      <trkpt lat="63.82947" lon="10.22823">
        <ele>168.193322</ele>
        <time>2020-08-08T12:39:03.486Z</time>
      </trkpt>
      <trkpt lat="63.83159" lon="10.22953">
        <ele>170.581998</ele>
        <time>2020-08-08T12:39:47.467Z</time>
      </trkpt>
      <trkpt lat="63.83357" lon="10.23081">
        <ele>181.49628</ele>
        <time>2020-08-08T12:40:58.503Z</time>
      </trkpt>
      <trkpt lat="63.83564" lon="10.23019">
        <ele>186.82488</ele>
        <time>2020-08-08T12:42:25.500Z</time>
      </trkpt>
      <trkpt lat="63.83759" lon="10.22869">
        <ele>188.544443</ele>
        <time>2020-08-08T12:48:18.435Z</time>
      </trkpt>
      <trkpt lat="63.83957" lon="10.22915">
        <ele>197.133181</ele>
        <time>2020-08-08T12:49:50.495Z</time>
      </trkpt>
      <trkpt lat="63.84169" lon="10.22926">
        <ele>204.364881</ele>
        <time>2020-08-08T12:51:31.474Z</time>
      </trkpt>
      <trkpt lat="63.84357" lon="10.22742">
        <ele>202.874243</ele>
        <time>2020-08-08T12:52:49.486Z</time>
      </trkpt>
      <trkpt lat="63.84585" lon="10.22618">
        <ele>200.961145</ele>
        <time>2020-08-08T12:53:33.445Z</time>
      </trkpt>
      <trkpt lat="63.84812" lon="10.22507">
        <ele>202.535411</ele>
        <time>2020-08-08T12:54:29.475Z</time>
      </trkpt>
      <trkpt lat="63.85033" lon="10.2247">
        <ele>199.132929</ele>
        <time>2020-08-08T12:55:24.468Z</time>
      </trkpt>
      <trkpt lat="63.85263" lon="10.22456">
        <ele>199.526191</ele>
        <time>2020-08-08T12:56:20.490Z</time>
      </trkpt>
      <trkpt lat="63.8546" lon="10.22591">
        <ele>210.180245</ele>
        <time>2020-08-08T12:57:29.462Z</time>
      </trkpt>
      <trkpt lat="63.85648" lon="10.22672">
        <ele>218.154597</ele>
        <time>2020-08-08T12:59:10.533Z</time>
      </trkpt>
      <trkpt lat="63.85862" lon="10.22552">
        <ele>213.766548</ele>
        <time>2020-08-08T13:00:04.474Z</time>
      </trkpt>
      <trkpt lat="63.86064" lon="10.22382">
        <ele>210.359527</ele>
        <time>2020-08-08T13:00:44.526Z</time>
      </trkpt>
      <trkpt lat="63.86276" lon="10.22334">
        <ele>210.635896</ele>
        <time>2020-08-08T13:01:38.466Z</time>
      </trkpt>
      <trkpt lat="63.86493" lon="10.22225">
        <ele>206.724019</ele>
        <time>2020-08-08T13:02:30.462Z</time>
      </trkpt>
      <trkpt lat="63.86698" lon="10.22087">
        <ele>207.402812</ele>
        <time>2020-08-08T13:03:20.496Z</time>
      </trkpt>
      <trkpt lat="63.86918" lon="10.2192">
        <ele>214.672084</ele>
        <time>2020-08-08T13:04:11.480Z</time>
      </trkpt>
      <trkpt lat="63.87117" lon="10.21886">
        <ele>223.066278</ele>
        <time>2020-08-08T13:05:42.480Z</time>
      </trkpt>
      <trkpt lat="63.87339" lon="10.21817">
        <ele>226.259442</ele>
        <time>2020-08-08T13:06:47.463Z</time>
      </trkpt>
      <trkpt lat="63.87564" lon="10.2166">
        <ele>223.166106</ele>
        <time>2020-08-08T13:07:49.479Z</time>
      </trkpt>
      <trkpt lat="63.87832" lon="10.21619">
        <ele>212.428146</ele>
        <time>2020-08-08T13:08:22.510Z</time>
      </trkpt>
      <trkpt lat="63.88055" lon="10.21659">
        <ele>207.65405</ele>
        <time>2020-08-08T13:09:09.461Z</time>
      </trkpt>
      <trkpt lat="63.88272" lon="10.21585">
        <ele>208.885364</ele>
        <time>2020-08-08T13:09:55.495Z</time>
      </trkpt>
      <trkpt lat="63.885" lon="10.21598">
        <ele>208.418901</ele>
        <time>2020-08-08T13:10:47.468Z</time>
      </trkpt>
      <trkpt lat="63.88763" lon="10.21536">
        <ele>204.611006</ele>
        <time>2020-08-08T13:11:30.459Z</time>
      </trkpt>
      <trkpt lat="63.89019" lon="10.21543">
        <ele>195.336658</ele>
        <time>2020-08-08T13:12:02.462Z</time>
      </trkpt>
      <trkpt lat="63.89155" lon="10.21837">
        <ele>184.662387</ele>
        <time>2020-08-08T13:12:22.459Z</time>
      </trkpt>
      <trkpt lat="63.89299" lon="10.22205">
        <ele>168.219571</ele>
        <time>2020-08-08T13:12:45.480Z</time>
      </trkpt>
      <trkpt lat="63.89486" lon="10.22602">
        <ele>154.822852</ele>
        <time>2020-08-08T13:13:14.482Z</time>
      </trkpt>
      <trkpt lat="63.89681" lon="10.2282">
        <ele>142.640486</ele>
        <time>2020-08-08T13:13:34.490Z</time>
      </trkpt>
      <trkpt lat="63.89912" lon="10.22929">
        <ele>129.519294</ele>
        <time>2020-08-08T13:13:55.481Z</time>
      </trkpt>
      <trkpt lat="63.90112" lon="10.23164">
        <ele>113.713957</ele>
        <time>2020-08-08T13:14:15.492Z</time>
      </trkpt>
      <trkpt lat="63.90324" lon="10.23218">
        <ele>99.039988</ele>
        <time>2020-08-08T13:14:36.481Z</time>
      </trkpt>
      <trkpt lat="63.90379" lon="10.23693">
        <ele>82.14236</ele>
        <time>2020-08-08T13:14:56.508Z</time>
      </trkpt>
      <trkpt lat="63.90409" lon="10.24184">
        <ele>65.93907</ele>
        <time>2020-08-08T13:15:16.449Z</time>
      </trkpt>
      <trkpt lat="63.90596" lon="10.24508">
        <ele>54.037358</ele>
        <time>2020-08-08T13:15:38.462Z</time>
      </trkpt>
      <trkpt lat="63.90773" lon="10.24791">
        <ele>56.858346</ele>
        <time>2020-08-08T13:16:30.485Z</time>
      </trkpt>
      <trkpt lat="63.90979" lon="10.25065">
        <ele>55.685091</ele>
        <time>2020-08-08T13:17:10.469Z</time>
      </trkpt>
      <trkpt lat="63.91101" lon="10.24696">
        <ele>55.225767</ele>
        <time>2020-08-08T13:18:04.478Z</time>
      </trkpt>
      <trkpt lat="63.91088" lon="10.24143">
        <ele>56.552753</ele>
        <time>2020-08-08T13:19:02.502Z</time>
      </trkpt>
      <trkpt lat="63.91005" lon="10.23675">
        <ele>67.682673</ele>
        <time>2020-08-08T13:20:21.452Z</time>
      </trkpt>
      <trkpt lat="63.91141" lon="10.23286">
        <ele>62.018567</ele>
        <time>2020-08-08T13:21:09.459Z</time>
      </trkpt>
      <trkpt lat="63.91315" lon="10.23037">
        <ele>65.905721</ele>
        <time>2020-08-08T13:22:24.477Z</time>
      </trkpt>
      <trkpt lat="63.91529" lon="10.23085">
        <ele>64.683722</ele>
        <time>2020-08-08T13:23:36.456Z</time>
      </trkpt>
      <trkpt lat="63.91724" lon="10.23112">
        <ele>66.456495</ele>
        <time>2020-08-08T13:24:23.471Z</time>
      </trkpt>
      <trkpt lat="63.91956" lon="10.22968">
        <ele>66.920226</ele>
        <time>2020-08-08T13:25:27.489Z</time>
      </trkpt>
      <trkpt lat="63.921" lon="10.22604">
        <ele>61.626162</ele>
        <time>2020-08-08T13:26:11.473Z</time>
      </trkpt>
      <trkpt lat="63.92085" lon="10.22101">
        <ele>61.398767</ele>
        <time>2020-08-08T13:26:58.452Z</time>
      </trkpt>
      <trkpt lat="63.92031" lon="10.21627">
        <ele>66.507896</ele>
        <time>2020-08-08T13:28:03.506Z</time>
      </trkpt>
      <trkpt lat="63.92205" lon="10.21543">
        <ele>68.694557</ele>
        <time>2020-08-08T13:29:22.468Z</time>
      </trkpt>
      <trkpt lat="63.92413" lon="10.21712">
        <ele>69.634372</ele>
        <time>2020-08-08T13:30:31.456Z</time>
      </trkpt>
      <trkpt lat="63.92584" lon="10.22102">
        <ele>60.581415</ele>
        <time>2020-08-08T13:31:06.470Z</time>
      </trkpt>
      <trkpt lat="63.92755" lon="10.22485">
        <ele>51.473409</ele>
        <time>2020-08-08T13:31:31.479Z</time>
      </trkpt>
      <trkpt lat="63.93085" lon="10.22545">
        <ele>67.837445</ele>
        <time>2020-08-08T13:33:39.470Z</time>
      </trkpt>
      <trkpt lat="63.93263" lon="10.22208">
        <ele>58.712115</ele>
        <time>2020-08-08T13:34:22.448Z</time>
      </trkpt>
      <trkpt lat="63.935" lon="10.22197">
        <ele>55.21166</ele>
        <time>2020-08-08T13:35:07.474Z</time>
      </trkpt>
      <trkpt lat="63.93713" lon="10.22339">
        <ele>56.220752</ele>
        <time>2020-08-08T13:35:49.452Z</time>
      </trkpt>
      <trkpt lat="63.93911" lon="10.22274">
        <ele>61.628439</ele>
        <time>2020-08-08T13:36:51.480Z</time>
      </trkpt>
      <trkpt lat="63.94109" lon="10.2226">
        <ele>69.310777</ele>
        <time>2020-08-08T13:38:25.503Z</time>
      </trkpt>
      <trkpt lat="63.94328" lon="10.22324">
        <ele>70.757582</ele>
        <time>2020-08-08T13:39:41.461Z</time>
      </trkpt>
      <trkpt lat="63.94581" lon="10.22456">
        <ele>58.813103</ele>
        <time>2020-08-08T13:40:21.499Z</time>
      </trkpt>
      <trkpt lat="63.94854" lon="10.22584">
        <ele>53.40864</ele>
        <time>2020-08-08T13:41:03.460Z</time>
      </trkpt>
      <trkpt lat="63.95055" lon="10.22667">
        <ele>56.085579</ele>
        <time>2020-08-08T13:41:44.457Z</time>
      </trkpt>
      <trkpt lat="63.9527" lon="10.22685">
        <ele>59.106899</ele>
        <time>2020-08-08T13:42:49.498Z</time>
      </trkpt>
      <trkpt lat="63.95476" lon="10.22687">
        <ele>69.004833</ele>
        <time>2020-08-08T13:44:51.482Z</time>
      </trkpt>
      <trkpt lat="63.95687" lon="10.22713">
        <ele>68.765652</ele>
        <time>2020-08-08T13:46:12.474Z</time>
      </trkpt>
      <trkpt lat="63.95892" lon="10.22629">
        <ele>50.445804</ele>
        <time>2020-08-08T13:46:54.526Z</time>
      </trkpt>
      <trkpt lat="63.9576" lon="10.22198">
        <ele>45.032728</ele>
        <time>2020-08-08T13:47:51.474Z</time>
      </trkpt>
    </trkseg>
  </trk>
</gpx>